Time;durP1;ratioP1;P1;durP2;ratioP2;P2;SDS_P1;SDS_P2;PMS_P1;PMS_P2;Temp;Humidity;BMP_temperature;BMP_pressure;BME280_temperature;BME280_humidity;BME280_pressure;Samples;Min_cycle;Max_cycle;Signal;HPM_P1;HPM_P2
2023/09/20 00:01:53;;;;;;;4.10;2.67;;;13.30;99.90;;;;;;5070308;28;20188;-28
2023/09/20 00:04:20;;;;;;;3.93;2.60;;;13.30;99.90;;;;;;5089083;28;20640;-28
2023/09/20 00:06:46;;;;;;;2.60;2.30;;;13.30;99.90;;;;;;5087215;28;20188;-27
2023/09/20 00:09:17;;;;;;;3.13;2.40;;;13.40;99.90;;;;;;5052865;28;20193;-27
2023/09/20 00:11:45;;;;;;;4.07;2.40;;;13.40;99.90;;;;;;5080829;28;20193;-28
2023/09/20 00:14:11;;;;;;;2.83;2.30;;;13.50;99.90;;;;;;5080434;28;20188;-27
2023/09/20 00:16:37;;;;;;;4.27;2.47;;;13.50;99.90;;;;;;5051082;28;20206;-26
2023/09/20 00:19:03;;;;;;;2.47;2.27;;;13.50;99.90;;;;;;5072262;28;20180;-28
2023/09/20 00:21:28;;;;;;;2.90;2.60;;;13.50;99.90;;;;;;5092600;28;20183;-28
2023/09/20 00:23:55;;;;;;;4.67;2.30;;;13.50;99.90;;;;;;5092638;28;20212;-27
2023/09/20 00:26:21;;;;;;;2.53;2.30;;;13.50;99.90;;;;;;5085984;28;20173;-27
2023/09/20 00:28:49;;;;;;;3.50;2.70;;;13.50;99.90;;;;;;5085768;28;20176;-27
2023/09/20 00:31:15;;;;;;;3.00;2.37;;;13.40;99.90;;;;;;5077404;28;20193;-27
2023/09/20 00:33:42;;;;;;;2.80;2.30;;;13.40;99.90;;;;;;5086811;28;20182;-27
2023/09/20 00:36:08;;;;;;;4.03;2.13;;;13.40;99.90;;;;;;5054655;28;20206;-27
2023/09/20 00:38:34;;;;;;;2.30;2.10;;;13.40;99.90;;;;;;5078650;28;20177;-27
2023/09/20 00:41:09;;;;;;;4.17;2.17;;;13.20;99.90;;;;;;5074591;28;20221;-26
2023/09/20 00:43:34;;;;;;;3.27;2.60;;;13.20;99.90;;;;;;5068792;28;20241;-27
2023/09/20 00:46:00;;;;;;;2.63;2.30;;;13.20;99.90;;;;;;5083696;28;20185;-27
2023/09/20 00:48:29;;;;;;;3.47;2.63;;;13.20;99.90;;;;;;5087015;28;20216;-27
2023/09/20 00:50:56;;;;;;;3.33;2.60;;;13.20;99.90;;;;;;5082715;28;20205;-28
2023/09/20 00:53:23;;;;;;;3.73;2.43;;;13.10;99.90;;;;;;5069910;28;20181;-27
2023/09/20 00:55:49;;;;;;;2.43;2.23;;;13.10;99.90;;;;;;5080587;28;20205;-26
2023/09/20 00:58:17;;;;;;;4.03;2.40;;;13.10;99.90;;;;;;5052155;28;20181;-28
2023/09/20 01:00:43;;;;;;;5.47;2.73;;;13.10;99.90;;;;;;5084779;28;20250;-27
2023/09/20 01:03:17;;;;;;;4.03;2.50;;;13.10;99.90;;;;;;5074287;28;20174;-27
2023/09/20 01:05:47;;;;;;;3.70;2.60;;;13.10;99.90;;;;;;5075320;28;20213;-28
2023/09/20 01:08:13;;;;;;;4.90;2.70;;;13.00;99.90;;;;;;5068621;28;20184;-27
2023/09/20 01:10:38;;;;;;;4.03;2.50;;;13.00;99.90;;;;;;5063725;28;20280;-27
2023/09/20 01:13:07;;;;;;;3.53;2.73;;;13.00;99.90;;;;;;5073375;28;20300;-27
2023/09/20 01:15:35;;;;;;;3.00;2.73;;;13.00;99.90;;;;;;5088338;28;20211;-27
2023/09/20 01:18:03;;;;;;;2.63;2.30;;;13.00;99.90;;;;;;5087090;28;20215;-27
2023/09/20 01:20:30;;;;;;;3.13;2.53;;;13.00;99.90;;;;;;5107581;28;20242;-30
2023/09/20 01:22:58;;;;;;;3.37;2.20;;;12.90;99.90;;;;;;5087582;28;20260;-30
2023/09/20 01:25:36;;;;;;;3.67;2.70;;;12.90;99.90;;;;;;5088669;28;20177;-29
2023/09/20 01:28:04;;;;;;;2.53;2.33;;;13.00;99.90;;;;;;5088536;28;20215;-29
2023/09/20 01:30:36;;;;;;;4.77;2.20;;;12.90;99.90;;;;;;5077975;28;20207;-30
2023/09/20 01:33:04;;;;;;;5.17;2.77;;;12.90;99.90;;;;;;5088583;28;20643;-30
2023/09/20 01:35:32;;;;;;;3.43;2.50;;;12.80;99.90;;;;;;5085262;28;20205;-28
2023/09/20 01:37:58;;;;;;;3.20;2.50;;;12.70;99.90;;;;;;5051311;28;20190;-27
2023/09/20 01:40:28;;;;;;;3.83;2.50;;;12.70;99.90;;;;;;5078447;28;20193;-27
2023/09/20 01:42:58;;;;;;;2.43;2.23;;;12.70;99.90;;;;;;5053300;28;20666;-27
2023/09/20 01:45:24;;;;;;;6.13;2.40;;;12.80;99.90;;;;;;5074344;28;20189;-27
2023/09/20 01:47:52;;;;;;;3.97;2.67;;;12.80;99.90;;;;;;5088057;28;20182;-28
2023/09/20 01:50:23;;;;;;;4.00;2.50;;;12.70;99.90;;;;;;5087459;28;20201;-27
2023/09/20 01:52:58;;;;;;;4.23;2.60;;;12.70;99.90;;;;;;5077409;28;20192;-28
2023/09/20 01:55:26;;;;;;;3.83;2.70;;;12.70;99.90;;;;;;5062786;28;20359;-27
2023/09/20 01:57:55;;;;;;;4.37;3.10;;;12.70;99.90;;;;;;5083330;28;20173;-27
2023/09/20 02:00:24;;;;;;;4.33;2.63;;;12.70;99.90;;;;;;5064740;28;20208;-28
2023/09/20 02:02:54;;;;;;;3.43;2.87;;;12.60;99.90;;;;;;5069348;28;20289;-27
2023/09/20 02:05:21;;;;;;;4.93;2.50;;;12.60;99.90;;;;;;5073047;28;20188;-27
2023/09/20 02:07:48;;;;;;;3.87;2.60;;;12.60;99.90;;;;;;5078740;28;20250;-26
2023/09/20 02:10:17;;;;;;;3.40;2.50;;;12.60;99.90;;;;;;5065810;28;20208;-27
2023/09/20 02:12:48;;;;;;;4.60;2.53;;;12.60;99.90;;;;;;5060839;28;20190;-27
2023/09/20 02:15:14;;;;;;;4.03;2.73;;;12.50;99.90;;;;;;5070281;28;20232;-27
2023/09/20 02:17:41;;;;;;;3.83;2.50;;;12.50;99.90;;;;;;5077079;28;20177;-27
2023/09/20 02:20:11;;;;;;;5.40;2.80;;;12.50;99.90;;;;;;5068642;28;20249;-27
2023/09/20 02:22:40;;;;;;;3.50;2.50;;;12.40;99.90;;;;;;5077395;28;20236;-27
2023/09/20 02:25:11;;;;;;;3.83;2.70;;;12.30;99.90;;;;;;5064766;28;20183;-27
2023/09/20 02:27:43;;;;;;;3.80;2.90;;;12.30;99.90;;;;;;5079717;28;20249;-27
2023/09/20 02:30:14;;;;;;;3.83;2.43;;;12.40;99.90;;;;;;5050738;28;20259;-27
2023/09/20 02:32:43;;;;;;;5.17;2.70;;;12.40;99.90;;;;;;5084211;28;20185;-27
2023/09/20 02:35:10;;;;;;;5.60;3.00;;;12.40;99.90;;;;;;5059100;28;20209;-26
2023/09/20 02:37:37;;;;;;;2.67;2.40;;;12.30;99.90;;;;;;5082503;28;20170;-26
2023/09/20 02:40:13;;;;;;;3.57;2.47;;;12.30;99.90;;;;;;5080212;28;20250;-27
2023/09/20 02:42:54;;;;;;;2.83;2.60;;;12.30;99.90;;;;;;5059208;28;20259;-27
2023/09/20 02:45:25;;;;;;;3.77;2.40;;;12.30;99.90;;;;;;5064661;28;20188;-27
2023/09/20 02:47:52;;;;;;;3.10;2.40;;;12.30;99.90;;;;;;5081439;28;20176;-26
2023/09/20 02:50:23;;;;;;;3.30;2.30;;;12.20;99.90;;;;;;5090174;28;20707;-27
2023/09/20 02:52:51;;;;;;;4.33;2.70;;;12.20;99.90;;;;;;5089973;28;20176;-26
2023/09/20 02:55:20;;;;;;;3.47;2.60;;;12.20;99.90;;;;;;5073040;28;20259;-26
2023/09/20 02:57:52;;;;;;;4.27;2.73;;;12.20;99.90;;;;;;5084203;28;20183;-26
2023/09/20 03:00:21;;;;;;;3.57;2.77;;;12.20;99.90;;;;;;5063332;28;20205;-27
2023/09/20 03:02:53;;;;;;;5.07;2.70;;;12.20;99.90;;;;;;5079521;28;20165;-26
2023/09/20 03:05:25;;;;;;;4.40;2.57;;;12.20;99.90;;;;;;5075654;28;20196;-27
2023/09/20 03:07:53;;;;;;;3.97;2.60;;;12.10;99.90;;;;;;5086690;28;20182;-26
2023/09/20 03:10:21;;;;;;;3.00;2.40;;;12.10;99.90;;;;;;5083375;28;20208;-27
2023/09/20 04:46:28;;;;;;;2.73;2.27;;;11.50;99.90;;;;;;5035395;28;20234;-33
2023/09/20 04:48:56;;;;;;;4.10;2.40;;;11.40;99.90;;;;;;5033757;28;20184;-32
2023/09/20 04:51:22;;;;;;;2.80;2.40;;;11.40;99.90;;;;;;5030895;28;20190;-33
2023/09/20 04:53:48;;;;;;;3.40;2.50;;;11.40;99.90;;;;;;5027415;28;20192;-31
2023/09/20 04:56:16;;;;;;;3.83;2.70;;;11.30;99.90;;;;;;5037561;28;20212;-30
2023/09/20 04:58:42;;;;;;;4.07;2.40;;;11.30;99.90;;;;;;5060775;28;20179;-36
2023/09/20 05:01:13;;;;;;;2.83;2.50;;;11.40;99.90;;;;;;5036045;28;20241;-34
2023/09/20 05:03:39;;;;;;;3.90;2.60;;;11.30;99.90;;;;;;5021479;28;20184;-33
2023/09/20 05:06:07;;;;;;;3.60;2.53;;;11.30;99.90;;;;;;5056198;28;20185;-34
2023/09/20 05:08:36;;;;;;;4.30;2.80;;;11.30;99.90;;;;;;5042351;28;20187;-37
2023/09/20 05:11:10;;;;;;;3.47;3.00;;;11.30;99.90;;;;;;5038619;28;20184;-36
2023/09/20 05:13:38;;;;;;;3.90;3.47;;;11.30;99.90;;;;;;5022011;28;20185;-36
2023/09/20 05:16:04;;;;;;;4.30;3.00;;;11.40;99.90;;;;;;5021304;28;20200;-37
2023/09/20 05:18:30;;;;;;;3.53;2.73;;;11.40;99.90;;;;;;5005468;28;20169;-35
2023/09/20 05:20:56;;;;;;;3.30;2.73;;;11.40;99.90;;;;;;5005586;28;20176;-33
2023/09/20 05:23:22;;;;;;;4.30;3.33;;;11.40;99.90;;;;;;5017486;28;20191;-36
2023/09/20 05:25:48;;;;;;;2.80;2.60;;;11.40;99.90;;;;;;5034213;28;20190;-34
2023/09/20 05:28:15;;;;;;;2.67;2.47;;;11.40;99.90;;;;;;5035058;28;20209;-36
2023/09/20 05:30:44;;;;;;;4.00;2.80;;;11.30;99.90;;;;;;5034284;28;20196;-37
2023/09/20 05:33:14;;;;;;;2.97;2.43;;;11.30;99.90;;;;;;5034116;28;20195;-33
2023/09/20 05:35:40;;;;;;;5.10;2.97;;;11.30;99.90;;;;;;5033318;28;20220;-34
2023/09/20 05:38:07;;;;;;;4.93;3.00;;;11.30;99.90;;;;;;5034392;28;20197;-37
2023/09/20 05:40:34;;;;;;;4.30;2.83;;;11.30;99.90;;;;;;5034673;28;20175;-34
2023/09/20 05:43:03;;;;;;;3.90;2.77;;;11.40;99.90;;;;;;5034546;28;20179;-36
2023/09/20 05:45:31;;;;;;;3.50;3.13;;;11.40;99.90;;;;;;5037617;28;20190;-32
2023/09/20 05:48:01;;;;;;;4.40;3.07;;;11.50;99.90;;;;;;5038010;28;20201;-35
2023/09/20 05:50:35;;;;;;;3.50;3.20;;;11.60;99.90;;;;;;5037419;28;20181;-37
2023/09/20 05:53:11;;;;;;;4.33;2.77;;;11.70;99.90;;;;;;5038476;28;20184;-34
2023/09/20 05:55:39;;;;;;;4.13;3.20;;;11.80;99.90;;;;;;5037355;28;20208;-33
2023/09/20 05:58:05;;;;;;;5.53;3.10;;;11.90;99.90;;;;;;5037245;28;20203;-33
2023/09/20 06:00:33;;;;;;;4.60;3.53;;;11.90;99.90;;;;;;5019102;28;20187;-35
2023/09/20 06:02:59;;;;;;;3.20;2.90;;;12.00;99.90;;;;;;5033222;28;20627;-33
2023/09/20 06:05:25;;;;;;;4.27;2.73;;;12.00;99.90;;;;;;5024931;28;20208;-36
2023/09/20 06:07:53;;;;;;;4.27;3.33;;;12.00;99.90;;;;;;5029959;28;20215;-36
2023/09/20 06:10:22;;;;;;;2.80;2.60;;;12.00;99.90;;;;;;5032525;28;20186;-32
2023/09/20 06:12:50;;;;;;;3.13;2.77;;;12.10;99.90;;;;;;5023482;28;20186;-34
2023/09/20 06:15:17;;;;;;;3.63;2.73;;;12.20;99.90;;;;;;5034087;28;20208;-36
2023/09/20 06:17:48;;;;;;;3.93;2.83;;;12.20;99.90;;;;;;5030461;28;20206;-36
2023/09/20 06:20:21;;;;;;;4.50;3.10;;;12.40;99.90;;;;;;5021225;28;20199;-33
2023/09/20 06:22:49;;;;;;;4.00;2.97;;;12.50;99.90;;;;;;5026922;28;20182;-35
2023/09/20 06:25:19;;;;;;;4.17;3.07;;;12.60;99.90;;;;;;5022935;28;20198;-36
2023/09/20 06:27:46;;;;;;;4.43;2.93;;;12.70;99.90;;;;;;5041947;28;20216;-36
2023/09/20 06:30:12;;;;;;;6.40;2.70;;;12.80;99.90;;;;;;5041497;28;20284;-34
2023/09/20 06:32:39;;;;;;;3.93;2.80;;;12.90;99.90;;;;;;5059215;28;20200;-37
2023/09/20 06:35:06;;;;;;;3.70;2.60;;;13.10;99.90;;;;;;5039844;28;20202;-40
2023/09/20 06:37:33;;;;;;;4.13;3.10;;;13.10;99.90;;;;;;5025238;28;20224;-38
2023/09/20 06:40:00;;;;;;;3.43;2.83;;;13.20;99.90;;;;;;5032418;28;20223;-38
2023/09/20 06:42:29;;;;;;;4.40;3.50;;;13.20;99.90;;;;;;5027012;28;20186;-37
2023/09/20 06:44:55;;;;;;;4.13;2.70;;;13.20;99.90;;;;;;5042078;28;20181;-40
2023/09/20 06:47:25;;;;;;;3.97;3.10;;;13.30;99.90;;;;;;5021337;28;20252;-36
2023/09/20 06:49:51;;;;;;;7.50;3.00;;;13.40;99.90;;;;;;5034227;28;20223;-37
2023/09/20 06:52:18;;;;;;;3.33;3.03;;;13.50;99.90;;;;;;5043159;28;20196;-36
2023/09/20 06:54:45;;;;;;;4.33;2.97;;;13.70;99.90;;;;;;5042860;28;20173;-40
2023/09/20 06:57:17;;;;;;;3.43;3.00;;;13.80;99.90;;;;;;5039621;28;20295;-39
2023/09/20 06:59:45;;;;;;;3.60;2.30;;;14.00;99.90;;;;;;5018664;28;20178;-36
2023/09/20 07:02:13;;;;;;;4.73;2.60;;;14.10;99.90;;;;;;5004835;28;20316;-33
2023/09/20 07:04:39;;;;;;;4.07;2.63;;;14.20;99.90;;;;;;5030300;28;20200;-38
2023/09/20 07:07:08;;;;;;;2.50;2.30;;;14.40;99.90;;;;;;5030019;28;20281;-33
2023/09/20 07:09:35;;;;;;;2.90;2.60;;;14.50;99.90;;;;;;5021651;28;20174;-38
2023/09/20 07:12:03;;;;;;;4.80;2.40;;;14.60;99.90;;;;;;5035102;28;20178;-33
2023/09/20 07:14:32;;;;;;;4.27;2.53;;;14.80;99.90;;;;;;5029483;28;20205;-36
2023/09/20 07:17:02;;;;;;;4.73;2.63;;;14.90;99.90;;;;;;5029562;28;20206;-35
2023/09/20 07:19:35;;;;;;;4.00;2.47;;;15.00;99.90;;;;;;5008153;28;20202;-37
2023/09/20 07:22:03;;;;;;;2.87;2.50;;;15.10;99.90;;;;;;5025388;28;20177;-34
2023/09/20 07:24:32;;;;;;;3.33;2.53;;;15.30;99.90;;;;;;5041471;28;20185;-37
2023/09/20 07:26:58;;;;;;;3.10;2.80;;;15.40;99.90;;;;;;5039762;28;20265;-37
2023/09/20 07:29:24;;;;;;;5.07;2.53;;;15.50;99.90;;;;;;5042216;28;20181;-35
2023/09/20 07:31:50;;;;;;;3.43;2.30;;;15.60;99.90;;;;;;5040684;28;20775;-39
2023/09/20 07:34:19;;;;;;;4.13;2.30;;;15.80;99.90;;;;;;5039264;28;20184;-38
2023/09/20 07:36:49;;;;;;;3.83;2.37;;;15.90;99.90;;;;;;5032809;28;20206;-35
2023/09/20 07:39:21;;;;;;;5.57;2.60;;;16.00;99.90;;;;;;5004910;28;20170;-36
2023/09/20 07:41:50;;;;;;;4.20;2.40;;;16.10;99.90;;;;;;5009152;28;20206;-34
2023/09/20 07:44:30;;;;;;;2.93;2.20;;;16.30;99.90;;;;;;5021684;28;20170;-38
2023/09/20 07:46:57;;;;;;;2.83;2.10;;;16.40;99.90;;;;;;5024976;28;20208;-36
2023/09/20 07:49:23;;;;;;;3.87;3.00;;;16.50;99.90;;;;;;5028125;28;20190;-36
2023/09/20 07:51:50;;;;;;;4.60;3.27;;;16.60;99.90;;;;;;5027865;28;20193;-37
2023/09/20 07:54:17;;;;;;;4.88;2.50;;;16.70;99.90;;;;;;5017684;28;20521;-38
2023/09/20 07:56:49;;;;;;;7.00;3.10;;;16.80;99.90;;;;;;5005491;28;20289;-36
2023/09/20 07:59:17;;;;;;;4.47;3.15;;;16.90;99.90;;;;;;5007320;28;20201;-35
2023/09/20 08:01:44;;;;;;;4.50;2.50;;;17.00;99.90;;;;;;5027596;28;20183;-39
2023/09/20 08:04:11;;;;;;;2.58;2.38;;;17.10;99.90;;;;;;5003296;28;20209;-37
2023/09/20 08:06:40;;;;;;;3.78;2.55;;;17.20;99.90;;;;;;5023646;28;20347;-39
2023/09/20 08:09:07;;;;;;;4.22;2.30;;;17.20;99.90;;;;;;5005784;28;20218;-38
2023/09/20 08:11:33;;;;;;;3.13;2.17;;;17.30;99.90;;;;;;5022180;28;20235;-40
2023/09/20 08:14:01;;;;;;;4.30;2.33;;;17.40;99.90;;;;;;5021301;28;20224;-37
2023/09/20 08:16:31;;;;;;;2.92;2.30;;;17.60;99.90;;;;;;5024745;28;20214;-38
2023/09/20 08:19:04;;;;;;;2.63;2.40;;;17.60;99.90;;;;;;5026833;28;20204;-40
2023/09/20 08:21:32;;;;;;;3.55;2.30;;;17.70;99.90;;;;;;5034213;28;20171;-39
2023/09/20 09:00:24;;;;;;;2.28;1.80;;;19.80;99.90;;;;;;5034840;28;20188;-38
2023/09/20 09:02:57;;;;;;;3.45;2.00;;;20.00;99.90;;;;;;5018847;28;20174;-36
2023/09/20 09:05:27;;;;;;;5.30;2.35;;;20.10;99.90;;;;;;5019335;28;20190;-40
2023/09/20 09:07:56;;;;;;;4.25;2.20;;;20.20;99.90;;;;;;5035520;28;20198;-40
2023/09/20 09:10:26;;;;;;;2.42;1.88;;;20.30;99.90;;;;;;5035298;28;20257;-40
2023/09/20 09:12:52;;;;;;;3.10;1.90;;;20.50;99.90;;;;;;5032298;28;20193;-37
2023/09/20 09:15:21;;;;;;;4.18;2.00;;;20.70;99.90;;;;;;5019036;28;20208;-40
2023/09/20 09:17:49;;;;;;;3.42;1.73;;;20.80;99.90;;;;;;5035192;28;20233;-40
2023/09/20 09:20:19;;;;;;;4.15;1.98;;;20.90;99.90;;;;;;5034450;28;20713;-38
2023/09/20 09:22:47;;;;;;;4.20;1.90;;;21.00;99.90;;;;;;5027650;28;20171;-34
2023/09/20 09:25:17;;;;;;;4.07;2.08;;;21.20;99.90;;;;;;5027410;28;20194;-40
2023/09/20 09:27:43;;;;;;;2.22;1.88;;;21.30;99.90;;;;;;5031075;28;20664;-40
2023/09/20 09:30:17;;;;;;;4.95;2.08;;;21.40;99.90;;;;;;5032225;28;20255;-39
2023/09/20 09:32:45;;;;;;;4.35;1.65;;;21.50;99.90;;;;;;5021096;28;20190;-38
2023/09/20 09:35:12;;;;;;;4.63;1.90;;;21.40;99.90;;;;;;5012304;28;20292;-40
2023/09/20 09:37:41;;;;;;;3.70;1.58;;;21.50;99.90;;;;;;5029733;28;20199;-34
2023/09/20 09:40:09;;;;;;;2.25;1.60;;;21.60;99.90;;;;;;5010258;28;20240;-40
2023/09/20 09:42:36;;;;;;;2.95;1.38;;;21.80;99.90;;;;;;5030162;28;20257;-39
2023/09/20 09:45:02;;;;;;;3.50;1.90;;;21.80;99.90;;;;;;5024216;28;20224;-38
2023/09/20 09:47:30;;;;;;;2.30;1.80;;;21.80;99.90;;;;;;5009325;28;20225;-39
2023/09/20 09:49:58;;;;;;;3.08;1.60;;;22.00;99.90;;;;;;5010236;28;20186;-40
2023/09/20 09:52:24;;;;;;;2.70;1.70;;;22.10;99.90;;;;;;5006580;28;20273;-39
2023/09/20 09:54:52;;;;;;;2.65;1.60;;;22.10;99.90;;;;;;5024128;28;20194;-39
2023/09/20 09:57:19;;;;;;;1.83;1.60;;;22.10;99.90;;;;;;5024448;28;20194;-39
2023/09/20 09:59:51;;;;;;;3.65;1.60;;;22.20;99.90;;;;;;5028445;28;20182;-40
2023/09/20 10:02:17;;;;;;;3.25;1.90;;;22.40;99.90;;;;;;5024639;28;20175;-40
2023/09/20 10:04:58;;;;;;;2.13;1.42;;;22.60;99.90;;;;;;5006090;28;20205;-40
2023/09/20 10:07:31;;;;;;;1.80;1.60;;;22.60;99.90;;;;;;5009722;28;20201;-39
2023/09/20 10:10:12;;;;;;;3.15;1.70;;;22.90;99.90;;;;;;5031876;28;20182;-38
2023/09/20 10:12:40;;;;;;;1.77;1.60;;;23.10;99.90;;;;;;5021104;28;20192;-40
2023/09/20 10:15:11;;;;;;;2.83;1.77;;;23.20;99.90;;;;;;5020648;28;20220;-38
2023/09/20 10:17:52;;;;;;;2.17;1.70;;;23.20;99.90;;;;;;5027567;28;20226;-40
2023/09/20 10:20:18;;;;;;;2.40;1.58;;;23.20;99.90;;;;;;5005073;28;20174;-38
2023/09/20 10:22:48;;;;;;;2.33;1.67;;;23.30;99.90;;;;;;5029755;28;20170;-41
2023/09/20 10:25:31;;;;;;;3.22;1.63;;;23.30;99.90;;;;;;5045942;28;20190;-40
2023/09/20 10:28:02;;;;;;;2.42;1.60;;;23.40;99.90;;;;;;5003622;28;20206;-40
2023/09/20 10:30:34;;;;;;;1.92;1.50;;;23.60;99.90;;;;;;5011862;28;20193;-41
2023/09/20 10:33:03;;;;;;;2.10;1.60;;;23.70;99.90;;;;;;5008735;28;20206;-40
2023/09/20 10:35:31;;;;;;;1.95;1.40;;;23.90;99.90;;;;;;5012759;28;20289;-40
2023/09/20 10:38:10;;;;;;;1.90;1.42;;;23.90;99.90;;;;;;5036311;28;20194;-40
2023/09/20 10:40:57;;;;;;;1.55;1.40;;;24.10;99.90;;;;;;5004943;28;20205;-40
2023/09/20 10:43:42;;;;;;;3.58;1.65;;;24.10;99.90;;;;;;5010113;28;20724;-38
2023/09/20 10:46:14;;;;;;;1.77;1.40;;;24.20;99.90;;;;;;5028507;28;20204;-41
2023/09/20 10:48:51;;;;;;;2.20;1.42;;;24.20;99.90;;;;;;5029378;28;20182;-40
2023/09/20 10:51:44;;;;;;;2.17;1.30;;;24.30;99.90;;;;;;5029776;28;20190;-40
2023/09/20 10:54:19;;;;;;;3.55;1.40;;;24.30;99.90;;;;;;5023943;28;20181;-39
2023/09/20 10:56:53;;;;;;;1.10;1.10;;;24.40;99.90;;;;;;5029100;28;20205;-39
2023/09/20 10:59:27;;;;;;;3.10;1.23;;;24.40;99.90;;;;;;5030423;28;20173;-36
2023/09/20 11:01:58;;;;;;;1.50;1.20;;;24.50;99.90;;;;;;5020482;28;20175;-38
2023/09/20 11:04:28;;;;;;;1.90;1.13;;;24.60;99.90;;;;;;5017809;28;20182;-34
2023/09/20 11:06:59;;;;;;;2.47;1.48;;;24.40;99.90;;;;;;5034223;28;20229;-39
2023/09/20 11:09:38;;;;;;;2.42;1.23;;;24.60;99.90;;;;;;5025949;28;20181;-35
2023/09/20 11:12:08;;;;;;;2.95;1.40;;;24.60;99.90;;;;;;5029409;28;20177;-34
2023/09/20 11:14:44;;;;;;;1.33;1.08;;;24.60;99.90;;;;;;5004114;28;20194;-38
2023/09/20 11:17:16;;;;;;;2.80;1.40;;;24.80;99.90;;;;;;5028334;28;20201;-37
2023/09/20 11:19:42;;;;;;;3.13;1.55;;;24.70;99.90;;;;;;5024784;28;20239;-38
2023/09/20 11:22:08;;;;;;;2.20;1.42;;;24.70;99.90;;;;;;5023858;28;20182;-36
2023/09/20 11:24:41;;;;;;;1.50;1.10;;;24.70;99.90;;;;;;5031278;28;20277;-36
2023/09/20 11:27:08;;;;;;;1.98;1.20;;;24.70;99.90;;;;;;5029983;28;20192;-33
2023/09/20 11:29:37;;;;;;;1.20;1.10;;;24.80;99.90;;;;;;5002541;28;20318;-36
2023/09/20 11:32:09;;;;;;;1.65;1.20;;;24.90;99.90;;;;;;5009380;28;20182;-36
2023/09/20 11:34:43;;;;;;;1.40;1.27;;;24.90;99.90;;;;;;5026586;28;20264;-37
2023/09/20 11:37:09;;;;;;;1.70;1.40;;;25.10;99.90;;;;;;5031065;28;20328;-35
2023/09/20 11:39:35;;;;;;;1.92;1.08;;;25.20;99.90;;;;;;5014077;28;20174;-37
2023/09/20 11:42:04;;;;;;;1.77;1.30;;;25.30;99.90;;;;;;5029129;28;20186;-38
2023/09/20 11:44:37;;;;;;;2.55;1.27;;;25.30;99.90;;;;;;5024121;28;20186;-36
2023/09/20 11:47:03;;;;;;;1.88;1.30;;;25.30;99.90;;;;;;5011382;28;20256;-37
2023/09/20 11:49:29;;;;;;;1.10;1.00;;;25.20;99.90;;;;;;5014987;28;20261;-38
2023/09/20 11:51:59;;;;;;;2.25;1.20;;;25.30;99.90;;;;;;5015547;28;20190;-37
2023/09/20 11:54:28;;;;;;;1.20;1.10;;;25.20;99.90;;;;;;5007982;28;20185;-39
2023/09/20 11:56:59;;;;;;;1.92;1.30;;;25.40;99.90;;;;;;5016231;28;20220;-36
2023/09/20 11:59:25;;;;;;;1.15;1.05;;;25.70;99.90;;;;;;5008093;28;20285;-37
2023/09/20 12:01:50;;;;;;;1.02;0.90;;;25.90;99.90;;;;;;5014280;28;20316;-38
2023/09/20 12:04:17;;;;;;;4.50;1.30;;;26.10;99.90;;;;;;5016550;28;20181;-38
2023/09/20 12:06:43;;;;;;;2.17;0.98;;;26.20;99.90;;;;;;5019921;28;20212;-35
2023/09/20 12:09:09;;;;;;;1.52;1.40;;;26.40;99.90;;;;;;5019483;28;20174;-37
2023/09/20 12:11:38;;;;;;;2.58;1.20;;;26.50;99.90;;;;;;5015510;28;20178;-34
2023/09/20 12:14:04;;;;;;;2.95;1.35;;;26.40;99.90;;;;;;5016561;28;20178;-39
2023/09/20 12:16:31;;;;;;;1.63;1.38;;;26.20;99.90;;;;;;5021607;28;20217;-36
2023/09/20 12:19:00;;;;;;;2.92;1.30;;;26.20;99.90;;;;;;5028141;28;20270;-35
2023/09/20 12:21:27;;;;;;;1.40;1.27;;;26.10;99.90;;;;;;5011515;28;20226;-35
2023/09/20 12:23:53;;;;;;;1.20;1.10;;;26.20;99.90;;;;;;5011185;28;20190;-36
2023/09/20 12:26:19;;;;;;;1.35;1.25;;;26.30;99.90;;;;;;5032151;28;20213;-35
2023/09/20 12:28:46;;;;;;;2.70;1.15;;;26.50;99.90;;;;;;5010592;28;20186;-39
2023/09/20 12:31:13;;;;;;;1.83;1.15;;;26.80;99.90;;;;;;5033648;28;20190;-35
2023/09/20 12:33:40;;;;;;;1.45;1.27;;;26.80;99.90;;;;;;5034769;28;20185;-38
2023/09/20 12:36:11;;;;;;;1.63;1.10;;;26.80;99.90;;;;;;5033490;28;20206;-38
2023/09/20 12:38:37;;;;;;;2.03;1.20;;;26.90;99.90;;;;;;5034578;28;20178;-36
2023/09/20 12:41:03;;;;;;;1.17;1.08;;;26.90;99.90;;;;;;5031547;28;20265;-40
2023/09/20 12:43:28;;;;;;;1.65;1.20;;;27.00;99.90;;;;;;5009422;28;20651;-37
2023/09/20 12:45:54;;;;;;;1.85;1.10;;;27.10;99.90;;;;;;5033854;28;20340;-36
2023/09/20 12:48:22;;;;;;;1.73;1.20;;;27.40;99.90;;;;;;5021567;28;20182;-39
2023/09/20 12:50:48;;;;;;;1.25;1.15;;;27.50;99.90;;;;;;5010786;28;20687;-39
2023/09/20 12:53:13;;;;;;;5.38;1.30;;;27.40;99.90;;;;;;5032925;28;20288;-39
2023/09/20 12:55:42;;;;;;;7.50;1.42;;;27.30;99.90;;;;;;5027433;28;20232;-33
2023/09/20 12:58:10;;;;;;;1.77;1.30;;;27.40;99.90;;;;;;5038977;28;20209;-38
2023/09/20 13:00:42;;;;;;;3.00;1.35;;;27.40;99.90;;;;;;5040596;28;20185;-39
2023/09/20 13:03:08;;;;;;;1.75;1.30;;;27.20;99.90;;;;;;5036041;28;20197;-40
2023/09/20 13:05:36;;;;;;;2.03;1.10;;;27.30;99.90;;;;;;5037401;28;20213;-37
2023/09/20 13:08:03;;;;;;;1.55;1.20;;;27.30;99.90;;;;;;5034438;28;20240;-36
2023/09/20 13:10:31;;;;;;;1.35;1.23;;;27.40;99.90;;;;;;5021075;28;20181;-38
2023/09/20 13:12:57;;;;;;;2.50;1.13;;;27.40;99.90;;;;;;5033427;28;20285;-38
2023/09/20 13:15:23;;;;;;;2.67;1.30;;;27.50;99.90;;;;;;5017652;28;20581;-35
2023/09/20 13:17:50;;;;;;;1.40;1.30;;;27.50;99.90;;;;;;5018394;28;20577;-36
2023/09/20 13:20:18;;;;;;;2.70;1.10;;;27.70;99.90;;;;;;5024171;28;20192;-38
2023/09/20 13:22:52;;;;;;;1.30;1.20;;;27.90;99.90;;;;;;5038573;28;20197;-40
2023/09/20 13:25:29;;;;;;;1.67;1.20;;;28.10;99.90;;;;;;5022104;28;20207;-37
2023/09/20 13:27:56;;;;;;;2.22;1.30;;;28.20;99.90;;;;;;5035368;28;20206;-39
2023/09/20 13:30:24;;;;;;;3.20;1.40;;;28.30;99.90;;;;;;5029617;28;20194;-38
2023/09/20 13:32:50;;;;;;;1.92;1.35;;;28.30;99.90;;;;;;5031513;28;20190;-37
2023/09/20 13:35:17;;;;;;;2.30;1.50;;;28.20;99.90;;;;;;5024085;28;20198;-35
2023/09/20 13:37:46;;;;;;;1.23;1.13;;;28.10;99.90;;;;;;5050228;28;20194;-39
2023/09/20 13:40:15;;;;;;;1.83;1.20;;;28.10;99.90;;;;;;5031974;28;20197;-38
2023/09/20 13:42:45;;;;;;;1.92;1.10;;;28.20;99.90;;;;;;5011641;28;20295;-40
2023/09/20 13:45:12;;;;;;;1.85;1.40;;;28.30;99.90;;;;;;5017510;28;20198;-35
2023/09/20 13:47:42;;;;;;;2.50;1.40;;;28.20;99.90;;;;;;5018059;28;20206;-39
2023/09/20 13:50:10;;;;;;;1.30;1.20;;;28.10;99.90;;;;;;5034761;28;20186;-39
2023/09/20 13:52:36;;;;;;;1.30;1.15;;;28.30;99.90;;;;;;5036884;28;20185;-39
2023/09/20 13:55:05;;;;;;;1.88;1.08;;;28.30;99.90;;;;;;5007957;28;20178;-39
2023/09/20 13:57:36;;;;;;;6.32;1.27;;;28.50;99.90;;;;;;5008310;28;20206;-37
2023/09/20 14:00:05;;;;;;;1.40;1.30;;;28.60;99.90;;;;;;5012306;28;20181;-38
2023/09/20 14:02:37;;;;;;;3.22;1.20;;;28.70;99.90;;;;;;5036104;28;20203;-39
2023/09/20 14:05:14;;;;;;;1.42;1.20;;;28.80;99.90;;;;;;5034843;28;20240;-40
2023/09/20 14:07:55;;;;;;;2.42;1.48;;;28.60;99.90;;;;;;5025714;28;20205;-38
2023/09/20 14:10:25;;;;;;;1.88;1.20;;;28.60;99.90;;;;;;5019395;28;20276;-40
2023/09/20 14:12:51;;;;;;;1.40;1.20;;;28.60;99.90;;;;;;5026974;28;20170;-39
2023/09/20 14:15:21;;;;;;;4.45;1.10;;;28.80;99.90;;;;;;5035334;28;20209;-36
2023/09/20 14:17:50;;;;;;;1.60;1.30;;;28.90;99.90;;;;;;5035189;28;20200;-39
2023/09/20 14:20:22;;;;;;;1.42;1.02;;;28.90;99.90;;;;;;5035095;28;20276;-38
2023/09/20 14:22:54;;;;;;;1.63;1.40;;;29.20;99.90;;;;;;5017965;28;20174;-39
2023/09/20 14:25:43;;;;;;;1.23;1.13;;;29.20;99.90;;;;;;5032877;28;20195;-38
2023/09/20 14:28:18;;;;;;;1.45;1.27;;;28.90;99.90;;;;;;5014126;28;20210;-37
2023/09/20 14:30:51;;;;;;;2.55;1.40;;;28.80;99.90;;;;;;5031152;28;20182;-35
2023/09/20 14:33:21;;;;;;;1.00;0.88;;;28.90;99.90;;;;;;5029901;28;20194;-38
2023/09/20 14:36:02;;;;;;;1.40;1.10;;;29.00;99.90;;;;;;5051342;28;20209;-38
2023/09/20 14:38:29;;;;;;;1.40;1.30;;;29.00;99.90;;;;;;5033559;28;20220;-41
2023/09/20 14:40:56;;;;;;;1.83;1.05;;;29.10;99.90;;;;;;5025088;28;20191;-37
2023/09/20 14:43:23;;;;;;;1.33;1.20;;;29.30;99.90;;;;;;5021995;28;20274;-39
2023/09/20 14:45:49;;;;;;;1.80;1.10;;;29.20;99.90;;;;;;5012811;28;20208;-41
2023/09/20 14:48:16;;;;;;;1.30;1.20;;;29.30;99.90;;;;;;4997510;28;20202;-40
2023/09/20 14:50:41;;;;;;;1.85;1.48;;;29.20;99.90;;;;;;4997300;28;20178;-41
2023/09/20 14:53:07;;;;;;;1.75;1.50;;;29.10;99.90;;;;;;4997973;28;20394;-36
2023/09/20 14:55:35;;;;;;;2.28;1.40;;;29.00;99.90;;;;;;5016937;28;20206;-39
2023/09/20 14:58:02;;;;;;;0.93;0.90;;;28.80;99.90;;;;;;5017275;28;20237;-39
2023/09/20 15:00:33;;;;;;;1.30;1.20;;;28.70;99.90;;;;;;5016899;28;20182;-38
2023/09/20 15:03:02;;;;;;;1.30;1.20;;;28.70;99.90;;;;;;5016716;28;20170;-40
2023/09/20 15:05:28;;;;;;;1.83;1.30;;;28.60;99.90;;;;;;5033036;28;20178;-39
2023/09/20 15:07:55;;;;;;;3.13;1.30;;;28.60;99.90;;;;;;5017008;28;20209;-36